sensor_id;sensor_type;location;lat;lon;timestamp;P1;durP1;ratioP1;P2;durP2;ratioP2
20173;SDS011;10246;50.620;7.232;2022-07-21T00:00:26;7.23;;;4.60;;
20173;SDS011;10246;50.620;7.232;2022-07-21T00:02:54;8.10;;;4.50;;
20173;SDS011;10246;50.620;7.232;2022-07-21T00:05:22;5.83;;;4.70;;
20173;SDS011;10246;50.620;7.232;2022-07-21T00:07:49;6.27;;;4.47;;
20173;SDS011;10246;50.620;7.232;2022-07-21T00:10:17;6.80;;;4.70;;
20173;SDS011;10246;50.620;7.232;2022-07-21T00:12:45;5.03;;;4.10;;
20173;SDS011;10246;50.620;7.232;2022-07-21T00:15:15;5.43;;;4.30;;
20173;SDS011;10246;50.620;7.232;2022-07-21T00:17:43;6.80;;;4.20;;
20173;SDS011;10246;50.620;7.232;2022-07-21T00:20:10;5.90;;;4.20;;
20173;SDS011;10246;50.620;7.232;2022-07-21T00:22:39;6.33;;;4.53;;
20173;SDS011;10246;50.620;7.232;2022-07-21T00:25:07;8.23;;;4.00;;
20173;SDS011;10246;50.620;7.232;2022-07-21T00:27:34;6.77;;;4.40;;
20173;SDS011;10246;50.620;7.232;2022-07-21T00:30:02;5.60;;;4.40;;
20173;SDS011;10246;50.620;7.232;2022-07-21T00:32:30;5.37;;;4.20;;
20173;SDS011;10246;50.620;7.232;2022-07-21T00:34:57;5.37;;;4.10;;
20173;SDS011;10246;50.620;7.232;2022-07-21T00:37:24;6.30;;;4.40;;
20173;SDS011;10246;50.620;7.232;2022-07-21T00:39:52;6.87;;;4.40;;
20173;SDS011;10246;50.620;7.232;2022-07-21T00:42:20;9.30;;;4.70;;
20173;SDS011;10246;50.620;7.232;2022-07-21T00:44:47;7.27;;;4.40;;
20173;SDS011;10246;50.620;7.232;2022-07-21T00:47:14;5.10;;;4.10;;
20173;SDS011;10246;50.620;7.232;2022-07-21T00:49:42;8.93;;;4.17;;
20173;SDS011;10246;50.620;7.232;2022-07-21T00:52:09;5.63;;;4.27;;
20173;SDS011;10246;50.620;7.232;2022-07-21T00:54:36;5.17;;;4.27;;
20173;SDS011;10246;50.620;7.232;2022-07-21T00:57:03;7.90;;;4.63;;
20173;SDS011;10246;50.620;7.232;2022-07-21T00:59:30;7.03;;;4.27;;
20173;SDS011;10246;50.620;7.232;2022-07-21T01:01:57;5.47;;;4.70;;
20173;SDS011;10246;50.620;7.232;2022-07-21T01:04:24;6.47;;;4.47;;
20173;SDS011;10246;50.620;7.232;2022-07-21T01:06:53;5.13;;;3.90;;
20173;SDS011;10246;50.620;7.232;2022-07-21T01:09:20;5.17;;;4.07;;
20173;SDS011;10246;50.620;7.232;2022-07-21T01:11:48;5.70;;;4.00;;
20173;SDS011;10246;50.620;7.232;2022-07-21T01:14:15;4.90;;;3.83;;
20173;SDS011;10246;50.620;7.232;2022-07-21T01:16:42;5.33;;;4.37;;
20173;SDS011;10246;50.620;7.232;2022-07-21T01:19:09;7.53;;;4.43;;
20173;SDS011;10246;50.620;7.232;2022-07-21T01:21:38;7.50;;;4.57;;
20173;SDS011;10246;50.620;7.232;2022-07-21T01:24:06;5.50;;;4.33;;
20173;SDS011;10246;50.620;7.232;2022-07-21T01:26:39;6.37;;;4.13;;
20173;SDS011;10246;50.620;7.232;2022-07-21T01:29:07;4.90;;;4.30;;
20173;SDS011;10246;50.620;7.232;2022-07-21T01:31:35;6.40;;;4.50;;
20173;SDS011;10246;50.620;7.232;2022-07-21T01:34:02;7.50;;;4.57;;
20173;SDS011;10246;50.620;7.232;2022-07-21T01:36:29;7.30;;;4.50;;
20173;SDS011;10246;50.620;7.232;2022-07-21T01:38:57;5.83;;;4.33;;
20173;SDS011;10246;50.620;7.232;2022-07-21T01:41:42;8.93;;;4.90;;
20173;SDS011;10246;50.620;7.232;2022-07-21T01:44:10;6.17;;;4.87;;
20173;SDS011;10246;50.620;7.232;2022-07-21T01:46:39;6.07;;;4.27;;
20173;SDS011;10246;50.620;7.232;2022-07-21T01:49:09;6.37;;;4.67;;
20173;SDS011;10246;50.620;7.232;2022-07-21T01:51:36;6.17;;;4.70;;
20173;SDS011;10246;50.620;7.232;2022-07-21T01:54:04;7.17;;;4.60;;
20173;SDS011;10246;50.620;7.232;2022-07-21T01:56:33;4.70;;;4.20;;
20173;SDS011;10246;50.620;7.232;2022-07-21T01:59:00;8.30;;;4.90;;
20173;SDS011;10246;50.620;7.232;2022-07-21T02:01:28;5.93;;;4.57;;
20173;SDS011;10246;50.620;7.232;2022-07-21T02:03:56;4.50;;;3.80;;
20173;SDS011;10246;50.620;7.232;2022-07-21T02:06:25;5.33;;;4.20;;
20173;SDS011;10246;50.620;7.232;2022-07-21T02:08:53;5.60;;;4.50;;
20173;SDS011;10246;50.620;7.232;2022-07-21T02:11:22;6.87;;;4.43;;
20173;SDS011;10246;50.620;7.232;2022-07-21T02:13:49;5.97;;;4.57;;
20173;SDS011;10246;50.620;7.232;2022-07-21T02:16:16;6.77;;;4.43;;
20173;SDS011;10246;50.620;7.232;2022-07-21T02:18:43;7.07;;;4.73;;
20173;SDS011;10246;50.620;7.232;2022-07-21T02:21:10;5.53;;;4.33;;
20173;SDS011;10246;50.620;7.232;2022-07-21T02:23:38;5.80;;;4.10;;
20173;SDS011;10246;50.620;7.232;2022-07-21T02:26:05;6.27;;;4.40;;
20173;SDS011;10246;50.620;7.232;2022-07-21T02:28:33;5.50;;;3.63;;
20173;SDS011;10246;50.620;7.232;2022-07-21T02:31:00;5.17;;;3.93;;
20173;SDS011;10246;50.620;7.232;2022-07-21T02:33:27;6.67;;;4.20;;
20173;SDS011;10246;50.620;7.232;2022-07-21T02:35:54;8.40;;;4.03;;
20173;SDS011;10246;50.620;7.232;2022-07-21T02:38:20;5.50;;;4.50;;
20173;SDS011;10246;50.620;7.232;2022-07-21T02:40:47;4.97;;;4.40;;
20173;SDS011;10246;50.620;7.232;2022-07-21T02:43:14;5.03;;;4.33;;
20173;SDS011;10246;50.620;7.232;2022-07-21T02:45:42;4.93;;;4.13;;
20173;SDS011;10246;50.620;7.232;2022-07-21T02:48:10;5.27;;;4.00;;
20173;SDS011;10246;50.620;7.232;2022-07-21T02:50:38;4.83;;;4.30;;
20173;SDS011;10246;50.620;7.232;2022-07-21T02:53:07;6.57;;;3.97;;
20173;SDS011;10246;50.620;7.232;2022-07-21T02:55:36;6.77;;;4.77;;
20173;SDS011;10246;50.620;7.232;2022-07-21T02:58:03;5.77;;;4.43;;
20173;SDS011;10246;50.620;7.232;2022-07-21T03:00:32;6.67;;;4.27;;
20173;SDS011;10246;50.620;7.232;2022-07-21T03:03:00;7.60;;;4.40;;
20173;SDS011;10246;50.620;7.232;2022-07-21T03:05:29;5.90;;;4.37;;
20173;SDS011;10246;50.620;7.232;2022-07-21T03:07:55;5.77;;;4.13;;
20173;SDS011;10246;50.620;7.232;2022-07-21T03:10:22;7.13;;;4.70;;
20173;SDS011;10246;50.620;7.232;2022-07-21T03:12:49;6.57;;;4.37;;
20173;SDS011;10246;50.620;7.232;2022-07-21T03:15:16;6.13;;;4.47;;
20173;SDS011;10246;50.620;7.232;2022-07-21T03:17:42;5.97;;;4.73;;
20173;SDS011;10246;50.620;7.232;2022-07-21T03:20:11;7.43;;;4.60;;
20173;SDS011;10246;50.620;7.232;2022-07-21T03:22:38;4.40;;;3.73;;
20173;SDS011;10246;50.620;7.232;2022-07-21T03:25:05;5.43;;;4.20;;
20173;SDS011;10246;50.620;7.232;2022-07-21T03:27:32;5.07;;;4.20;;
20173;SDS011;10246;50.620;7.232;2022-07-21T03:30:01;6.00;;;4.10;;
20173;SDS011;10246;50.620;7.232;2022-07-21T03:32:29;8.63;;;4.43;;
20173;SDS011;10246;50.620;7.232;2022-07-21T03:34:56;4.83;;;3.97;;
20173;SDS011;10246;50.620;7.232;2022-07-21T03:37:25;6.67;;;3.90;;
20173;SDS011;10246;50.620;7.232;2022-07-21T03:39:52;4.80;;;4.30;;
20173;SDS011;10246;50.620;7.232;2022-07-21T03:42:19;4.60;;;4.17;;
20173;SDS011;10246;50.620;7.232;2022-07-21T03:44:46;4.70;;;4.00;;
20173;SDS011;10246;50.620;7.232;2022-07-21T03:47:13;5.40;;;4.13;;
20173;SDS011;10246;50.620;7.232;2022-07-21T03:49:39;5.50;;;4.50;;
20173;SDS011;10246;50.620;7.232;2022-07-21T03:52:06;4.97;;;4.13;;
20173;SDS011;10246;50.620;7.232;2022-07-21T03:54:34;7.23;;;4.60;;
20173;SDS011;10246;50.620;7.232;2022-07-21T03:57:01;5.17;;;4.03;;
20173;SDS011;10246;50.620;7.232;2022-07-21T03:59:28;5.00;;;4.27;;
20173;SDS011;10246;50.620;7.232;2022-07-21T04:01:55;5.50;;;4.70;;
20173;SDS011;10246;50.620;7.232;2022-07-21T04:04:21;7.40;;;4.80;;
20173;SDS011;10246;50.620;7.232;2022-07-21T04:06:48;5.93;;;4.83;;
20173;SDS011;10246;50.620;7.232;2022-07-21T04:09:15;5.30;;;4.60;;
20173;SDS011;10246;50.620;7.232;2022-07-21T04:11:44;7.53;;;5.00;;
20173;SDS011;10246;50.620;7.232;2022-07-21T04:14:11;5.53;;;4.93;;
20173;SDS011;10246;50.620;7.232;2022-07-21T04:16:38;7.87;;;5.50;;
20173;SDS011;10246;50.620;7.232;2022-07-21T04:19:07;6.75;;;4.72;;
20173;SDS011;10246;50.620;7.232;2022-07-21T04:21:33;4.90;;;4.17;;
20173;SDS011;10246;50.620;7.232;2022-07-21T04:24:00;5.00;;;4.50;;
20173;SDS011;10246;50.620;7.232;2022-07-21T04:26:27;6.23;;;5.03;;
20173;SDS011;10246;50.620;7.232;2022-07-21T04:28:55;5.07;;;4.40;;
20173;SDS011;10246;50.620;7.232;2022-07-21T04:31:22;5.97;;;4.93;;
20173;SDS011;10246;50.620;7.232;2022-07-21T04:33:49;5.97;;;5.20;;
20173;SDS011;10246;50.620;7.232;2022-07-21T04:36:16;8.13;;;5.30;;
20173;SDS011;10246;50.620;7.232;2022-07-21T04:38:42;7.50;;;5.20;;
20173;SDS011;10246;50.620;7.232;2022-07-21T04:41:09;8.43;;;5.00;;
20173;SDS011;10246;50.620;7.232;2022-07-21T04:43:36;6.47;;;4.80;;
20173;SDS011;10246;50.620;7.232;2022-07-21T04:46:04;6.70;;;5.23;;
20173;SDS011;10246;50.620;7.232;2022-07-21T04:48:32;7.97;;;5.63;;
20173;SDS011;10246;50.620;7.232;2022-07-21T04:50:59;7.33;;;5.63;;
20173;SDS011;10246;50.620;7.232;2022-07-21T04:53:26;7.43;;;5.40;;
20173;SDS011;10246;50.620;7.232;2022-07-21T04:55:53;7.70;;;5.90;;
20173;SDS011;10246;50.620;7.232;2022-07-21T04:58:19;8.13;;;6.13;;
20173;SDS011;10246;50.620;7.232;2022-07-21T05:00:46;8.50;;;6.43;;
20173;SDS011;10246;50.620;7.232;2022-07-21T05:03:14;7.80;;;6.07;;
20173;SDS011;10246;50.620;7.232;2022-07-21T05:05:42;8.53;;;6.50;;
20173;SDS011;10246;50.620;7.232;2022-07-21T05:08:09;8.60;;;6.67;;
20173;SDS011;10246;50.620;7.232;2022-07-21T05:10:36;8.13;;;6.67;;
20173;SDS011;10246;50.620;7.232;2022-07-21T05:13:02;8.57;;;6.90;;
20173;SDS011;10246;50.620;7.232;2022-07-21T05:15:29;10.63;;;7.57;;
20173;SDS011;10246;50.620;7.232;2022-07-21T05:17:56;9.77;;;7.60;;
20173;SDS011;10246;50.620;7.232;2022-07-21T05:20:24;10.20;;;8.17;;
20173;SDS011;10246;50.620;7.232;2022-07-21T05:22:51;13.40;;;8.80;;
20173;SDS011;10246;50.620;7.232;2022-07-21T05:25:18;9.80;;;7.77;;
20173;SDS011;10246;50.620;7.232;2022-07-21T05:27:44;9.40;;;7.87;;
20173;SDS011;10246;50.620;7.232;2022-07-21T05:30:11;11.40;;;7.57;;
20173;SDS011;10246;50.620;7.232;2022-07-21T05:32:39;9.07;;;7.03;;
20173;SDS011;10246;50.620;7.232;2022-07-21T05:35:06;9.33;;;6.60;;
20173;SDS011;10246;50.620;7.232;2022-07-21T05:37:37;11.57;;;7.73;;
20173;SDS011;10246;50.620;7.232;2022-07-21T05:40:05;8.60;;;6.97;;
20173;SDS011;10246;50.620;7.232;2022-07-21T05:42:33;7.93;;;7.10;;
20173;SDS011;10246;50.620;7.232;2022-07-21T05:45:00;8.67;;;6.90;;
20173;SDS011;10246;50.620;7.232;2022-07-21T05:47:28;7.93;;;6.33;;
20173;SDS011;10246;50.620;7.232;2022-07-21T05:49:56;7.97;;;6.70;;
20173;SDS011;10246;50.620;7.232;2022-07-21T05:52:23;7.60;;;6.57;;
20173;SDS011;10246;50.620;7.232;2022-07-21T05:54:52;7.70;;;6.30;;
20173;SDS011;10246;50.620;7.232;2022-07-21T05:57:19;8.67;;;7.10;;
20173;SDS011;10246;50.620;7.232;2022-07-21T05:59:46;11.07;;;6.80;;
20173;SDS011;10246;50.620;7.232;2022-07-21T06:02:12;9.63;;;6.53;;
20173;SDS011;10246;50.620;7.232;2022-07-21T06:04:39;9.03;;;6.73;;
20173;SDS011;10246;50.620;7.232;2022-07-21T06:07:06;7.90;;;6.87;;
20173;SDS011;10246;50.620;7.232;2022-07-21T06:09:33;7.60;;;6.40;;
20173;SDS011;10246;50.620;7.232;2022-07-21T06:12:01;7.23;;;6.43;;
20173;SDS011;10246;50.620;7.232;2022-07-21T06:14:29;7.70;;;6.33;;
20173;SDS011;10246;50.620;7.232;2022-07-21T06:16:56;8.27;;;6.40;;
20173;SDS011;10246;50.620;7.232;2022-07-21T06:19:22;6.90;;;5.53;;
20173;SDS011;10246;50.620;7.232;2022-07-21T06:21:49;8.30;;;6.30;;
20173;SDS011;10246;50.620;7.232;2022-07-21T06:24:16;7.10;;;6.23;;
20173;SDS011;10246;50.620;7.232;2022-07-21T06:26:44;6.73;;;6.03;;
20173;SDS011;10246;50.620;7.232;2022-07-21T06:29:12;9.90;;;6.73;;
20173;SDS011;10246;50.620;7.232;2022-07-21T06:31:39;8.20;;;6.53;;
20173;SDS011;10246;50.620;7.232;2022-07-21T06:34:06;7.73;;;6.10;;
20173;SDS011;10246;50.620;7.232;2022-07-21T06:36:33;6.90;;;6.07;;
20173;SDS011;10246;50.620;7.232;2022-07-21T06:39:00;8.87;;;6.17;;
20173;SDS011;10246;50.620;7.232;2022-07-21T06:41:26;9.43;;;6.30;;
20173;SDS011;10246;50.620;7.232;2022-07-21T06:43:53;7.83;;;6.07;;
20173;SDS011;10246;50.620;7.232;2022-07-21T06:46:21;8.47;;;6.27;;
20173;SDS011;10246;50.620;7.232;2022-07-21T06:48:48;7.43;;;6.10;;
20173;SDS011;10246;50.620;7.232;2022-07-21T06:51:15;6.97;;;5.80;;
20173;SDS011;10246;50.620;7.232;2022-07-21T06:53:42;6.53;;;5.50;;
20173;SDS011;10246;50.620;7.232;2022-07-21T06:56:09;6.37;;;5.30;;
20173;SDS011;10246;50.620;7.232;2022-07-21T06:58:36;6.93;;;5.33;;
20173;SDS011;10246;50.620;7.232;2022-07-21T07:01:02;6.73;;;5.67;;
20173;SDS011;10246;50.620;7.232;2022-07-21T07:03:30;7.10;;;5.80;;
20173;SDS011;10246;50.620;7.232;2022-07-21T07:05:58;8.37;;;6.83;;
20173;SDS011;10246;50.620;7.232;2022-07-21T07:08:25;7.43;;;6.37;;
20173;SDS011;10246;50.620;7.232;2022-07-21T07:10:52;9.27;;;6.10;;
20173;SDS011;10246;50.620;7.232;2022-07-21T07:13:19;6.47;;;5.80;;
20173;SDS011;10246;50.620;7.232;2022-07-21T07:15:46;7.60;;;6.20;;
20173;SDS011;10246;50.620;7.232;2022-07-21T07:18:13;10.23;;;6.30;;
20173;SDS011;10246;50.620;7.232;2022-07-21T07:20:41;7.00;;;5.83;;
20173;SDS011;10246;50.620;7.232;2022-07-21T07:23:08;8.73;;;5.93;;
20173;SDS011;10246;50.620;7.232;2022-07-21T07:25:35;6.77;;;5.57;;
20173;SDS011;10246;50.620;7.232;2022-07-21T07:28:03;9.27;;;6.53;;
20173;SDS011;10246;50.620;7.232;2022-07-21T07:30:30;6.73;;;6.03;;
20173;SDS011;10246;50.620;7.232;2022-07-21T07:32:57;6.93;;;5.80;;
20173;SDS011;10246;50.620;7.232;2022-07-21T07:35:24;7.83;;;5.70;;
20173;SDS011;10246;50.620;7.232;2022-07-21T07:37:52;6.67;;;6.00;;
20173;SDS011;10246;50.620;7.232;2022-07-21T07:40:21;7.67;;;5.57;;
20173;SDS011;10246;50.620;7.232;2022-07-21T07:42:49;6.40;;;5.60;;
20173;SDS011;10246;50.620;7.232;2022-07-21T07:45:16;7.70;;;5.50;;
20173;SDS011;10246;50.620;7.232;2022-07-21T07:47:42;7.40;;;6.00;;
20173;SDS011;10246;50.620;7.232;2022-07-21T07:50:10;6.67;;;5.97;;
20173;SDS011;10246;50.620;7.232;2022-07-21T07:52:38;6.63;;;5.90;;
20173;SDS011;10246;50.620;7.232;2022-07-21T07:55:07;12.33;;;6.17;;
20173;SDS011;10246;50.620;7.232;2022-07-21T07:57:36;7.03;;;5.80;;
20173;SDS011;10246;50.620;7.232;2022-07-21T08:00:03;7.83;;;5.80;;
20173;SDS011;10246;50.620;7.232;2022-07-21T08:02:32;7.30;;;5.93;;
20173;SDS011;10246;50.620;7.232;2022-07-21T08:04:59;7.63;;;5.57;;
20173;SDS011;10246;50.620;7.232;2022-07-21T08:07:26;6.73;;;5.43;;
20173;SDS011;10246;50.620;7.232;2022-07-21T08:09:53;5.73;;;5.17;;
20173;SDS011;10246;50.620;7.232;2022-07-21T08:12:21;7.90;;;5.70;;
20173;SDS011;10246;50.620;7.232;2022-07-21T08:14:48;7.03;;;5.33;;
20173;SDS011;10246;50.620;7.232;2022-07-21T08:17:15;7.97;;;5.73;;
20173;SDS011;10246;50.620;7.232;2022-07-21T08:19:42;6.30;;;4.73;;
20173;SDS011;10246;50.620;7.232;2022-07-21T08:22:09;6.93;;;5.57;;
20173;SDS011;10246;50.620;7.232;2022-07-21T08:24:36;5.87;;;5.27;;
20173;SDS011;10246;50.620;7.232;2022-07-21T08:27:03;6.40;;;4.90;;
20173;SDS011;10246;50.620;7.232;2022-07-21T08:29:31;6.20;;;4.33;;
20173;SDS011;10246;50.620;7.232;2022-07-21T08:31:58;4.57;;;3.90;;
20173;SDS011;10246;50.620;7.232;2022-07-21T08:34:25;5.50;;;3.90;;
20173;SDS011;10246;50.620;7.232;2022-07-21T08:36:52;4.67;;;3.57;;
20173;SDS011;10246;50.620;7.232;2022-07-21T08:39:19;5.53;;;3.40;;
20173;SDS011;10246;50.620;7.232;2022-07-21T08:41:46;4.17;;;3.40;;
20173;SDS011;10246;50.620;7.232;2022-07-21T08:44:13;4.80;;;3.37;;
20173;SDS011;10246;50.620;7.232;2022-07-21T08:46:41;3.77;;;3.20;;
20173;SDS011;10246;50.620;7.232;2022-07-21T08:49:09;5.70;;;3.33;;
20173;SDS011;10246;50.620;7.232;2022-07-21T08:51:36;4.00;;;3.30;;
20173;SDS011;10246;50.620;7.232;2022-07-21T08:54:03;5.17;;;3.13;;
20173;SDS011;10246;50.620;7.232;2022-07-21T08:56:30;3.95;;;3.28;;
20173;SDS011;10246;50.620;7.232;2022-07-21T08:58:57;5.18;;;3.70;;
20173;SDS011;10246;50.620;7.232;2022-07-21T09:01:24;4.72;;;3.08;;
20173;SDS011;10246;50.620;7.232;2022-07-21T09:03:53;5.43;;;3.03;;
20173;SDS011;10246;50.620;7.232;2022-07-21T09:06:20;3.60;;;3.00;;
20173;SDS011;10246;50.620;7.232;2022-07-21T09:08:47;4.03;;;3.17;;
20173;SDS011;10246;50.620;7.232;2022-07-21T09:11:17;3.30;;;2.95;;
20173;SDS011;10246;50.620;7.232;2022-07-21T09:13:47;4.03;;;3.20;;
20173;SDS011;10246;50.620;7.232;2022-07-21T09:16:31;3.00;;;2.70;;
20173;SDS011;10246;50.620;7.232;2022-07-21T09:19:01;5.22;;;3.05;;
20173;SDS011;10246;50.620;7.232;2022-07-21T09:21:29;3.15;;;2.85;;
20173;SDS011;10246;50.620;7.232;2022-07-21T09:24:10;4.25;;;2.60;;
20173;SDS011;10246;50.620;7.232;2022-07-21T09:27:04;3.50;;;2.72;;
20173;SDS011;10246;50.620;7.232;2022-07-21T09:29:34;3.88;;;2.80;;
20173;SDS011;10246;50.620;7.232;2022-07-21T09:32:13;4.38;;;2.95;;
20173;SDS011;10246;50.620;7.232;2022-07-21T09:34:49;4.95;;;3.05;;
20173;SDS011;10246;50.620;7.232;2022-07-21T09:37:17;3.60;;;3.10;;
20173;SDS011;10246;50.620;7.232;2022-07-21T09:39:45;2.90;;;2.47;;
20173;SDS011;10246;50.620;7.232;2022-07-21T09:42:14;4.40;;;2.92;;
20173;SDS011;10246;50.620;7.232;2022-07-21T09:44:44;4.35;;;2.40;;
20173;SDS011;10246;50.620;7.232;2022-07-21T09:47:12;3.15;;;2.78;;
20173;SDS011;10246;50.620;7.232;2022-07-21T09:49:40;3.53;;;2.80;;
20173;SDS011;10246;50.620;7.232;2022-07-21T09:52:22;3.63;;;2.65;;
20173;SDS011;10246;50.620;7.232;2022-07-21T09:54:51;2.70;;;2.50;;
20173;SDS011;10246;50.620;7.232;2022-07-21T09:57:20;3.00;;;2.72;;
20173;SDS011;10246;50.620;7.232;2022-07-21T09:59:48;3.63;;;2.90;;
20173;SDS011;10246;50.620;7.232;2022-07-21T10:02:17;3.60;;;2.67;;
20173;SDS011;10246;50.620;7.232;2022-07-21T10:04:47;3.80;;;2.53;;
20173;SDS011;10246;50.620;7.232;2022-07-21T10:07:17;3.78;;;2.75;;
20173;SDS011;10246;50.620;7.232;2022-07-21T10:09:47;3.15;;;2.65;;
20173;SDS011;10246;50.620;7.232;2022-07-21T10:12:14;3.33;;;2.80;;
20173;SDS011;10246;50.620;7.232;2022-07-21T10:14:42;3.75;;;2.78;;
20173;SDS011;10246;50.620;7.232;2022-07-21T10:17:09;4.45;;;3.10;;
20173;SDS011;10246;50.620;7.232;2022-07-21T10:19:37;4.18;;;2.83;;
20173;SDS011;10246;50.620;7.232;2022-07-21T10:22:12;3.08;;;2.70;;
20173;SDS011;10246;50.620;7.232;2022-07-21T10:24:48;3.05;;;2.75;;
20173;SDS011;10246;50.620;7.232;2022-07-21T10:27:16;4.38;;;2.90;;
20173;SDS011;10246;50.620;7.232;2022-07-21T10:29:49;4.32;;;2.80;;
20173;SDS011;10246;50.620;7.232;2022-07-21T10:32:26;4.15;;;2.80;;
20173;SDS011;10246;50.620;7.232;2022-07-21T10:34:54;3.00;;;2.70;;
20173;SDS011;10246;50.620;7.232;2022-07-21T10:37:42;4.15;;;2.72;;
20173;SDS011;10246;50.620;7.232;2022-07-21T10:46:04;3.35;;;3.00;;
20173;SDS011;10246;50.620;7.232;2022-07-21T10:49:05;4.22;;;2.90;;
20173;SDS011;10246;50.620;7.232;2022-07-21T10:51:33;3.72;;;2.95;;
20173;SDS011;10246;50.620;7.232;2022-07-21T10:54:17;3.95;;;3.25;;
20173;SDS011;10246;50.620;7.232;2022-07-21T10:56:47;4.40;;;3.15;;
20173;SDS011;10246;50.620;7.232;2022-07-21T10:59:14;3.50;;;3.15;;
20173;SDS011;10246;50.620;7.232;2022-07-21T11:01:40;6.30;;;3.00;;
20173;SDS011;10246;50.620;7.232;2022-07-21T11:04:07;5.03;;;3.30;;
20173;SDS011;10246;50.620;7.232;2022-07-21T11:06:37;3.33;;;3.03;;
20173;SDS011;10246;50.620;7.232;2022-07-21T11:09:09;4.30;;;3.33;;
20173;SDS011;10246;50.620;7.232;2022-07-21T11:11:38;5.25;;;3.15;;
20173;SDS011;10246;50.620;7.232;2022-07-21T11:14:09;5.50;;;3.00;;
20173;SDS011;10246;50.620;7.232;2022-07-21T11:19:44;3.30;;;3.00;;
20173;SDS011;10246;50.620;7.232;2022-07-21T11:22:14;6.05;;;3.15;;
20173;SDS011;10246;50.620;7.232;2022-07-21T11:24:43;7.28;;;3.33;;
20173;SDS011;10246;50.620;7.232;2022-07-21T11:27:11;5.25;;;3.15;;
20173;SDS011;10246;50.620;7.232;2022-07-21T11:29:41;5.50;;;3.70;;
20173;SDS011;10246;50.620;7.232;2022-07-21T11:32:09;6.72;;;3.58;;
20173;SDS011;10246;50.620;7.232;2022-07-21T11:34:38;4.18;;;3.33;;
20173;SDS011;10246;50.620;7.232;2022-07-21T11:37:07;4.65;;;3.80;;
20173;SDS011;10246;50.620;7.232;2022-07-21T11:39:35;5.32;;;3.90;;
20173;SDS011;10246;50.620;7.232;2022-07-21T11:42:02;5.18;;;3.58;;
20173;SDS011;10246;50.620;7.232;2022-07-21T11:44:30;4.30;;;3.38;;
20173;SDS011;10246;50.620;7.232;2022-07-21T11:46:59;4.72;;;3.80;;
20173;SDS011;10246;50.620;7.232;2022-07-21T11:49:27;4.18;;;3.63;;
20173;SDS011;10246;50.620;7.232;2022-07-21T11:51:57;5.13;;;3.78;;
20173;SDS011;10246;50.620;7.232;2022-07-21T11:54:26;4.97;;;3.65;;
20173;SDS011;10246;50.620;7.232;2022-07-21T11:56:55;6.20;;;4.10;;
20173;SDS011;10246;50.620;7.232;2022-07-21T11:59:23;6.18;;;3.40;;
20173;SDS011;10246;50.620;7.232;2022-07-21T12:01:51;3.50;;;3.20;;
20173;SDS011;10246;50.620;7.232;2022-07-21T12:04:28;3.47;;;3.17;;
20173;SDS011;10246;50.620;7.232;2022-07-21T12:06:57;4.28;;;3.78;;
20173;SDS011;10246;50.620;7.232;2022-07-21T12:09:24;4.15;;;3.45;;
20173;SDS011;10246;50.620;7.232;2022-07-21T12:11:51;4.28;;;3.80;;
20173;SDS011;10246;50.620;7.232;2022-07-21T12:14:18;5.45;;;3.85;;
20173;SDS011;10246;50.620;7.232;2022-07-21T12:16:48;3.92;;;3.53;;
20173;SDS011;10246;50.620;7.232;2022-07-21T12:19:16;5.78;;;3.88;;
20173;SDS011;10246;50.620;7.232;2022-07-21T12:21:45;4.65;;;3.95;;
20173;SDS011;10246;50.620;7.232;2022-07-21T12:24:14;5.10;;;4.05;;
20173;SDS011;10246;50.620;7.232;2022-07-21T12:26:42;4.47;;;3.53;;
20173;SDS011;10246;50.620;7.232;2022-07-21T12:29:08;6.47;;;4.43;;
20173;SDS011;10246;50.620;7.232;2022-07-21T12:31:36;4.28;;;3.80;;
20173;SDS011;10246;50.620;7.232;2022-07-21T12:34:13;3.92;;;3.40;;
20173;SDS011;10246;50.620;7.232;2022-07-21T12:36:43;4.78;;;3.78;;
20173;SDS011;10246;50.620;7.232;2022-07-21T12:39:16;4.40;;;3.17;;
20173;SDS011;10246;50.620;7.232;2022-07-21T12:41:58;5.10;;;4.20;;
20173;SDS011;10246;50.620;7.232;2022-07-21T12:44:25;5.40;;;3.80;;
20173;SDS011;10246;50.620;7.232;2022-07-21T12:46:51;6.03;;;4.32;;
20173;SDS011;10246;50.620;7.232;2022-07-21T12:49:19;4.22;;;3.70;;
20173;SDS011;10246;50.620;7.232;2022-07-21T12:51:55;4.68;;;4.28;;
20173;SDS011;10246;50.620;7.232;2022-07-21T12:54:22;4.13;;;3.72;;
20173;SDS011;10246;50.620;7.232;2022-07-21T12:56:49;9.13;;;4.53;;
20173;SDS011;10246;50.620;7.232;2022-07-21T12:59:16;8.15;;;4.75;;
20173;SDS011;10246;50.620;7.232;2022-07-21T13:01:45;5.47;;;4.30;;
20173;SDS011;10246;50.620;7.232;2022-07-21T13:04:12;5.50;;;4.22;;
20173;SDS011;10246;50.620;7.232;2022-07-21T13:06:38;5.30;;;4.00;;
20173;SDS011;10246;50.620;7.232;2022-07-21T13:09:07;8.35;;;4.22;;
20173;SDS011;10246;50.620;7.232;2022-07-21T13:11:33;5.90;;;3.97;;
20173;SDS011;10246;50.620;7.232;2022-07-21T13:14:00;4.75;;;4.18;;
20173;SDS011;10246;50.620;7.232;2022-07-21T13:16:29;5.10;;;4.20;;
20173;SDS011;10246;50.620;7.232;2022-07-21T13:18:56;5.82;;;4.35;;
20173;SDS011;10246;50.620;7.232;2022-07-21T13:21:23;5.32;;;4.30;;
20173;SDS011;10246;50.620;7.232;2022-07-21T13:23:49;6.85;;;4.78;;
20173;SDS011;10246;50.620;7.232;2022-07-21T13:26:17;5.13;;;4.32;;
20173;SDS011;10246;50.620;7.232;2022-07-21T13:28:44;5.00;;;4.07;;
20173;SDS011;10246;50.620;7.232;2022-07-21T13:31:11;7.32;;;4.38;;
20173;SDS011;10246;50.620;7.232;2022-07-21T13:33:38;6.13;;;4.50;;
20173;SDS011;10246;50.620;7.232;2022-07-21T13:36:05;6.40;;;5.35;;
20173;SDS011;10246;50.620;7.232;2022-07-21T13:38:34;5.63;;;4.68;;
20173;SDS011;10246;50.620;7.232;2022-07-21T13:41:02;7.38;;;5.03;;
20173;SDS011;10246;50.620;7.232;2022-07-21T13:43:30;6.10;;;4.65;;
20173;SDS011;10246;50.620;7.232;2022-07-21T13:45:57;7.27;;;5.20;;
20173;SDS011;10246;50.620;7.232;2022-07-21T13:48:24;6.93;;;5.20;;
20173;SDS011;10246;50.620;7.232;2022-07-21T13:50:51;5.50;;;4.78;;
20173;SDS011;10246;50.620;7.232;2022-07-21T13:53:17;5.97;;;5.13;;
20173;SDS011;10246;50.620;7.232;2022-07-21T13:55:44;5.43;;;4.93;;
20173;SDS011;10246;50.620;7.232;2022-07-21T13:58:11;7.03;;;5.73;;
20173;SDS011;10246;50.620;7.232;2022-07-21T14:00:39;6.67;;;5.70;;
20173;SDS011;10246;50.620;7.232;2022-07-21T14:03:06;6.57;;;5.20;;
20173;SDS011;10246;50.620;7.232;2022-07-21T14:05:33;7.03;;;5.63;;
20173;SDS011;10246;50.620;7.232;2022-07-21T14:08:00;9.33;;;6.40;;
20173;SDS011;10246;50.620;7.232;2022-07-21T14:10:26;9.03;;;6.23;;
20173;SDS011;10246;50.620;7.232;2022-07-21T14:12:53;11.10;;;6.73;;
20173;SDS011;10246;50.620;7.232;2022-07-21T14:15:20;8.57;;;6.70;;
20173;SDS011;10246;50.620;7.232;2022-07-21T14:17:48;9.17;;;6.53;;
20173;SDS011;10246;50.620;7.232;2022-07-21T14:20:15;8.83;;;6.97;;
20173;SDS011;10246;50.620;7.232;2022-07-21T14:22:41;9.13;;;7.43;;
20173;SDS011;10246;50.620;7.232;2022-07-21T14:25:08;10.07;;;7.20;;
20173;SDS011;10246;50.620;7.232;2022-07-21T14:27:44;11.47;;;7.47;;
20173;SDS011;10246;50.620;7.232;2022-07-21T14:30:11;7.90;;;6.57;;
20173;SDS011;10246;50.620;7.232;2022-07-21T14:32:38;8.07;;;6.63;;
20173;SDS011;10246;50.620;7.232;2022-07-21T14:35:07;12.27;;;7.93;;
20173;SDS011;10246;50.620;7.232;2022-07-21T14:37:34;8.77;;;7.50;;
20173;SDS011;10246;50.620;7.232;2022-07-21T14:40:01;8.63;;;7.40;;
20173;SDS011;10246;50.620;7.232;2022-07-21T14:42:28;8.73;;;7.10;;
20173;SDS011;10246;50.620;7.232;2022-07-21T14:44:55;12.67;;;7.50;;
20173;SDS011;10246;50.620;7.232;2022-07-21T14:47:23;12.10;;;6.13;;
20173;SDS011;10246;50.620;7.232;2022-07-21T14:49:50;8.43;;;6.60;;
20173;SDS011;10246;50.620;7.232;2022-07-21T14:52:18;9.27;;;7.07;;
20173;SDS011;10246;50.620;7.232;2022-07-21T14:54:45;11.20;;;7.47;;
20173;SDS011;10246;50.620;7.232;2022-07-21T14:57:11;10.47;;;7.30;;
20173;SDS011;10246;50.620;7.232;2022-07-21T14:59:38;8.83;;;7.17;;
20173;SDS011;10246;50.620;7.232;2022-07-21T15:02:05;8.80;;;7.57;;